Time;durP1;ratioP1;P1;durP2;ratioP2;P2;SDS_P1;SDS_P2;PMS_P1;PMS_P2;Temp;Humidity;BMP_temperature;BMP_pressure;BME280_temperature;BME280_humidity;BME280_pressure;Samples;Min_cycle;Max_cycle;Signal;HPM_P1;HPM_P2
2023/10/12 00:00:42;;;;;;;15.63;2.15;;;14.10;99.90;;;;;;5091153;28;20093;-51
2023/10/12 00:03:12;;;;;;;11.05;2.13;;;14.10;99.90;;;;;;5091070;28;20489;-51
2023/10/12 00:05:39;;;;;;;10.15;2.05;;;14.10;99.90;;;;;;5090784;28;20115;-47
2023/10/12 00:08:09;;;;;;;10.30;1.98;;;14.10;99.90;;;;;;5091432;28;20471;-49
2023/10/12 00:10:42;;;;;;;9.48;2.60;;;14.00;99.90;;;;;;5091351;28;20130;-47
2023/10/12 00:13:11;;;;;;;13.20;2.28;;;14.10;99.90;;;;;;5091054;28;20040;-48
2023/10/12 00:15:41;;;;;;;12.82;2.70;;;14.10;99.90;;;;;;5093417;28;20036;-46
2023/10/12 00:18:10;;;;;;;8.40;2.28;;;14.10;99.90;;;;;;5094516;28;20066;-46
2023/10/12 00:20:39;;;;;;;16.33;2.65;;;14.00;99.90;;;;;;5095069;28;20493;-46
2023/10/12 00:23:15;;;;;;;18.33;2.63;;;14.00;99.90;;;;;;5076280;28;20115;-47
2023/10/12 00:25:54;;;;;;;13.43;2.50;;;14.10;99.90;;;;;;5094787;28;20067;-48
2023/10/12 00:28:28;;;;;;;17.42;2.17;;;14.00;99.90;;;;;;5094492;28;20039;-46
2023/10/12 00:30:57;;;;;;;12.52;2.13;;;14.00;99.90;;;;;;5095080;28;20078;-48
2023/10/12 00:33:24;;;;;;;12.38;2.33;;;14.10;99.90;;;;;;5094318;28;20062;-47
2023/10/12 00:35:53;;;;;;;10.65;2.20;;;14.00;99.90;;;;;;5094397;28;20055;-48
2023/10/12 00:38:23;;;;;;;;;;;14.00;99.90;;;;;;5094747;28;20402;-45
2023/10/12 00:40:57;;;;;;;8.02;2.03;;;14.10;99.90;;;;;;5094250;28;19977;-46
2023/10/12 00:43:36;;;;;;;10.40;1.90;;;14.00;99.90;;;;;;5094406;28;20047;-46
2023/10/12 00:46:23;;;;;;;10.38;3.05;;;14.00;99.90;;;;;;5094095;28;20054;-47
2023/10/12 00:48:55;;;;;;;11.30;2.40;;;14.10;99.90;;;;;;5094036;28;20094;-45
2023/10/12 00:51:22;;;;;;;15.23;2.60;;;14.10;99.90;;;;;;5094122;28;20046;-48
2023/10/12 00:53:57;;;;;;;10.82;2.15;;;14.10;99.90;;;;;;5094090;28;20393;-49
2023/10/12 00:56:28;;;;;;;15.27;2.65;;;14.10;99.90;;;;;;5093990;28;20494;-47
2023/10/12 00:58:55;;;;;;;13.30;2.85;;;14.00;99.90;;;;;;5094513;28;20155;-46
2023/10/12 01:01:23;;;;;;;12.77;2.72;;;14.10;99.90;;;;;;5094021;28;20079;-50
2023/10/12 01:03:49;;;;;;;9.35;2.40;;;14.10;99.90;;;;;;5094293;28;20055;-49
2023/10/12 01:08:51;;;;;;;19.92;3.50;;;14.00;99.90;;;;;;5093890;28;20044;-51
2023/10/12 01:11:23;;;;;;;11.77;3.20;;;14.00;99.90;;;;;;5093806;28;20064;-47
2023/10/12 01:16:29;;;;;;;14.23;3.47;;;14.00;99.90;;;;;;5093627;28;20382;-46
2023/10/12 01:18:57;;;;;;;11.25;3.20;;;14.00;99.90;;;;;;5093930;28;20075;-50
2023/10/12 01:21:22;;;;;;;14.65;3.47;;;14.00;99.90;;;;;;5093817;28;20044;-50
2023/10/12 01:23:51;;;;;;;23.17;3.20;;;13.90;99.90;;;;;;5093421;28;20040;-47
2023/10/12 01:26:18;;;;;;;;;;;13.90;99.90;;;;;;5093438;28;20093;-49
2023/10/12 01:28:49;;;;;;;16.63;2.90;;;13.90;99.90;;;;;;5093295;28;19974;-48
2023/10/12 01:31:23;;;;;;;13.70;2.92;;;13.90;99.90;;;;;;5093628;28;20067;-51
2023/10/12 01:33:54;;;;;;;17.80;2.92;;;13.90;99.90;;;;;;5093411;28;20044;-50
2023/10/12 01:36:21;;;;;;;16.88;2.97;;;13.90;99.90;;;;;;5093240;28;20456;-49
2023/10/12 01:38:47;;;;;;;19.08;2.47;;;13.90;99.90;;;;;;5092362;28;20089;-50
2023/10/12 01:41:17;;;;;;;14.45;2.67;;;13.90;99.90;;;;;;5092889;28;20032;-47
2023/10/12 01:43:43;;;;;;;12.18;2.47;;;13.80;99.90;;;;;;5093306;28;20032;-49
2023/10/12 01:46:09;;;;;;;8.38;2.05;;;13.80;99.90;;;;;;5093669;28;20044;-49
2023/10/12 01:48:35;;;;;;;11.43;2.53;;;13.80;99.90;;;;;;5093194;28;20368;-47
2023/10/12 01:53:57;;;;;;;16.83;2.30;;;13.80;99.90;;;;;;5079490;28;20044;-47
2023/10/12 01:56:29;;;;;;;17.05;2.72;;;13.80;99.90;;;;;;5093150;28;20028;-49
2023/10/12 01:58:54;;;;;;;15.43;2.53;;;13.70;99.90;;;;;;5093002;28;20075;-49
2023/10/12 02:01:21;;;;;;;9.98;2.40;;;13.60;99.90;;;;;;5093310;28;20079;-49
2023/10/12 02:03:53;;;;;;;10.82;2.15;;;13.70;99.90;;;;;;5092754;28;20105;-49
2023/10/12 02:06:22;;;;;;;15.55;3.25;;;13.60;99.90;;;;;;5092868;28;20050;-50
2023/10/12 02:09:10;;;;;;;;;;;13.60;99.90;;;;;;5093042;28;20048;-48
2023/10/12 02:11:43;;;;;;;15.93;2.88;;;13.60;99.90;;;;;;5092146;28;19916;-46
2023/10/12 02:14:12;;;;;;;14.52;2.17;;;13.60;99.90;;;;;;5092862;28;20156;-45
2023/10/12 02:16:39;;;;;;;15.20;1.98;;;13.60;99.90;;;;;;5092670;28;20031;-46
2023/10/12 02:19:07;;;;;;;10.73;2.15;;;13.50;99.90;;;;;;5090985;28;20051;-46
2023/10/12 02:21:37;;;;;;;13.43;2.88;;;13.60;99.90;;;;;;5092706;28;20375;-45
2023/10/12 02:34:18;;;;;;;8.98;2.40;;;13.50;99.90;;;;;;5112455;28;20036;-46
2023/10/12 02:39:42;;;;;;;14.25;2.50;;;13.40;99.90;;;;;;5111206;28;20048;-46
2023/10/12 02:42:16;;;;;;;16.13;2.47;;;13.50;99.90;;;;;;5112894;28;20043;-46
2023/10/12 02:44:57;;;;;;;12.75;2.30;;;13.50;99.90;;;;;;5112157;28;20031;-46
2023/10/12 02:47:39;;;;;;;9.07;2.65;;;13.50;99.90;;;;;;5112667;28;20118;-45
2023/10/12 02:52:36;;;;;;;15.98;2.92;;;13.30;99.90;;;;;;5112447;28;20040;-46
2023/10/12 02:55:18;;;;;;;9.95;2.30;;;13.30;99.90;;;;;;5112180;28;20174;-47
2023/10/12 02:57:53;;;;;;;14.57;2.55;;;13.30;99.90;;;;;;5112218;28;20050;-50
2023/10/12 03:00:44;;;;;;;12.93;2.33;;;13.30;99.90;;;;;;5112111;28;20035;-47
2023/10/12 03:03:27;;;;;;;13.57;2.85;;;13.30;99.90;;;;;;5112299;28;20131;-45
2023/10/12 03:06:00;;;;;;;11.13;2.20;;;13.30;99.90;;;;;;5112286;28;20443;-48
2023/10/12 03:08:30;;;;;;;14.35;2.35;;;13.30;99.90;;;;;;5111870;28;20485;-47
2023/10/12 03:13:35;;;;;;;10.65;2.40;;;13.20;99.90;;;;;;5111884;28;20039;-48
2023/10/12 03:16:09;;;;;;;12.07;2.53;;;13.20;99.90;;;;;;5098422;28;20393;-47
2023/10/12 03:18:35;;;;;;;17.15;2.30;;;13.10;99.90;;;;;;5112066;28;20050;-47
2023/10/12 03:21:05;;;;;;;12.65;2.50;;;13.20;99.90;;;;;;5111926;28;20405;-51
2023/10/12 03:23:34;;;;;;;8.18;2.13;;;13.20;99.90;;;;;;5111778;28;20039;-47
2023/10/12 03:26:17;;;;;;;;;;;13.20;99.90;;;;;;5112267;28;20039;-48
2023/10/12 03:28:45;;;;;;;12.63;2.67;;;13.20;99.90;;;;;;5112142;28;19963;-47
2023/10/12 03:31:15;;;;;;;13.88;2.30;;;13.20;99.90;;;;;;5111834;28;20106;-47
2023/10/12 03:33:47;;;;;;;11.75;2.45;;;13.10;99.90;;;;;;5111662;28;20061;-45
2023/10/12 03:36:25;;;;;;;11.68;2.30;;;13.10;99.90;;;;;;5111346;28;20076;-49
2023/10/12 03:39:12;;;;;;;14.27;2.30;;;13.20;99.90;;;;;;5112113;28;20043;-47
2023/10/12 03:52:29;;;;;;;11.95;2.55;;;13.00;99.90;;;;;;5115521;28;20100;-46
2023/10/12 03:54:56;;;;;;;19.95;3.28;;;13.10;99.90;;;;;;5115609;28;20027;-47
2023/10/12 03:57:38;;;;;;;8.70;2.03;;;13.10;99.90;;;;;;5115778;28;20070;-45
2023/10/12 04:18:42;;;;;;;11.65;2.53;;;12.90;99.90;;;;;;5114983;28;20122;-47
2023/10/12 04:21:14;;;;;;;13.48;2.45;;;12.90;99.90;;;;;;5115168;28;20129;-46
2023/10/12 04:23:44;;;;;;;11.20;2.38;;;12.80;99.90;;;;;;5096813;28;20050;-46
2023/10/12 04:28:50;;;;;;;14.63;2.53;;;12.80;99.90;;;;;;5114932;28;20087;-48
2023/10/12 04:36:35;;;;;;;13.43;2.53;;;12.80;99.90;;;;;;5112841;28;20088;-48
2023/10/12 04:47:03;;;;;;;12.30;2.20;;;12.80;99.90;;;;;;5114516;28;20126;-46
2023/10/12 04:54:29;;;;;;;11.32;2.45;;;12.60;99.90;;;;;;5114311;28;20068;-48
2023/10/12 04:57:13;;;;;;;10.13;2.38;;;12.70;99.90;;;;;;5114648;28;20043;-48
2023/10/12 05:00:00;;;;;;;14.35;2.50;;;12.70;99.90;;;;;;5114582;28;20035;-45
2023/10/12 05:02:30;;;;;;;17.45;2.15;;;12.70;99.90;;;;;;5113443;28;20050;-47
2023/10/12 05:07:28;;;;;;;11.15;2.63;;;12.70;99.90;;;;;;5114336;28;20542;-46
2023/10/12 05:09:54;;;;;;;10.10;2.25;;;12.70;99.90;;;;;;5113964;28;20493;-46
2023/10/12 05:12:25;;;;;;;12.82;2.78;;;12.70;99.90;;;;;;5100238;28;20039;-46
2023/10/12 05:14:55;;;;;;;10.02;2.22;;;12.70;99.90;;;;;;5114228;28;20035;-46
2023/10/12 05:17:24;;;;;;;8.77;2.10;;;12.60;99.90;;;;;;5114152;28;20393;-46
2023/10/12 05:19:53;;;;;;;14.02;2.13;;;12.60;99.90;;;;;;5114090;28;20175;-48
2023/10/12 05:22:20;;;;;;;14.50;2.30;;;12.50;99.90;;;;;;5113855;28;20047;-47
2023/10/12 05:24:46;;;;;;;12.38;2.47;;;12.50;99.90;;;;;;5114129;28;20362;-46
2023/10/12 05:27:38;;;;;;;9.70;2.03;;;12.40;99.90;;;;;;5113807;28;20039;-47
2023/10/12 05:30:16;;;;;;;12.55;2.22;;;12.40;99.90;;;;;;5114073;28;20075;-47
2023/10/12 05:32:49;;;;;;;12.70;2.60;;;12.40;99.90;;;;;;5103829;28;20054;-47
2023/10/12 05:35:19;;;;;;;12.45;2.50;;;12.30;99.90;;;;;;5093532;28;20072;-48
2023/10/12 05:37:49;;;;;;;13.55;2.08;;;12.30;99.90;;;;;;5075023;28;20072;-47
2023/10/12 05:40:16;;;;;;;12.25;2.10;;;12.20;99.90;;;;;;5093043;28;20036;-47
2023/10/12 05:42:47;;;;;;;11.88;2.35;;;12.20;99.90;;;;;;5093023;28;20068;-46
2023/10/12 05:45:22;;;;;;;16.08;2.20;;;12.20;99.90;;;;;;5093272;28;20452;-46
2023/10/12 05:47:52;;;;;;;10.70;2.58;;;12.10;99.90;;;;;;5093005;28;20040;-50
2023/10/12 05:50:24;;;;;;;8.45;1.80;;;12.10;99.90;;;;;;5093091;28;20097;-45
2023/10/12 05:52:59;;;;;;;14.00;2.25;;;12.20;99.90;;;;;;5092832;28;20064;-47
2023/10/12 05:55:25;;;;;;;11.55;1.98;;;12.20;99.90;;;;;;5092842;28;20385;-48
2023/10/12 05:57:51;;;;;;;12.10;2.35;;;12.20;99.90;;;;;;5092830;28;20092;-48
2023/10/12 06:00:36;;;;;;;8.98;2.13;;;12.20;99.90;;;;;;5092722;28;20036;-45
2023/10/12 06:03:05;;;;;;;7.82;1.77;;;12.10;99.90;;;;;;5093020;28;20036;-46
2023/10/12 06:05:34;;;;;;;10.23;1.80;;;12.00;99.90;;;;;;5092684;28;20044;-47
2023/10/12 06:08:03;;;;;;;;;;;12.00;99.90;;;;;;5093137;28;20071;-46
2023/10/12 06:10:29;;;;;;;15.95;2.45;;;12.00;99.90;;;;;;5092787;28;19927;-49
2023/10/12 06:12:58;;;;;;;5.30;1.75;;;11.90;99.90;;;;;;5092383;28;20589;-48
2023/10/12 06:15:28;;;;;;;13.85;2.15;;;11.90;99.90;;;;;;5057618;28;20047;-47
2023/10/12 06:17:55;;;;;;;11.57;2.05;;;11.80;99.90;;;;;;5092452;28;20036;-47
2023/10/12 06:20:35;;;;;;;16.35;2.30;;;11.80;99.90;;;;;;5092284;28;20044;-48
2023/10/12 06:23:08;;;;;;;11.35;2.28;;;11.70;99.90;;;;;;5092758;28;20052;-46
2023/10/12 06:25:37;;;;;;;6.60;1.92;;;11.70;99.90;;;;;;5092265;28;20042;-47
2023/10/12 06:28:06;;;;;;;8.45;2.28;;;11.70;99.90;;;;;;5092482;28;20048;-47
2023/10/12 06:30:32;;;;;;;11.18;2.03;;;11.70;99.90;;;;;;5092012;28;20039;-46
2023/10/12 06:32:59;;;;;;;7.28;1.55;;;11.70;99.90;;;;;;5092064;28;20060;-46
2023/10/12 06:35:25;;;;;;;14.10;2.33;;;11.60;99.90;;;;;;5092373;28;20047;-47
2023/10/12 06:45:51;;;;;;;9.48;2.00;;;11.60;99.90;;;;;;5091972;28;20078;-47
2023/10/12 06:51:03;;;;;;;10.10;2.78;;;11.80;99.90;;;;;;5092053;28;20044;-49
2023/10/12 06:53:34;;;;;;;9.90;2.95;;;11.80;99.90;;;;;;5092036;28;20051;-46
2023/10/12 06:58:46;;;;;;;9.55;2.15;;;11.80;99.90;;;;;;5092129;28;20119;-45
2023/10/12 07:01:19;;;;;;;7.80;2.13;;;11.90;99.90;;;;;;5073768;28;20032;-47
2023/10/12 07:03:48;;;;;;;9.75;1.92;;;11.90;99.90;;;;;;5092009;28;20044;-47
2023/10/12 07:06:16;;;;;;;;;;;12.00;99.90;;;;;;5092412;28;20047;-48
2023/10/12 07:08:45;;;;;;;9.07;2.17;;;12.00;99.90;;;;;;5091664;28;19920;-47
2023/10/12 07:11:17;;;;;;;13.50;2.58;;;12.10;99.90;;;;;;5091925;28;20093;-47
2023/10/12 07:13:45;;;;;;;15.90;2.95;;;12.10;99.90;;;;;;5091623;28;20035;-49
2023/10/12 07:16:20;;;;;;;9.30;1.75;;;12.30;99.90;;;;;;5091883;28;20645;-49
2023/10/12 07:18:49;;;;;;;6.38;1.73;;;12.50;99.90;;;;;;5091426;28;20105;-48
2023/10/12 07:21:21;;;;;;;5.70;1.67;;;12.70;99.90;;;;;;5073706;28;20090;-47
2023/10/12 07:23:56;;;;;;;6.88;1.60;;;13.00;99.90;;;;;;5091066;28;20036;-47
2023/10/12 07:26:23;;;;;;;11.23;2.25;;;13.30;99.90;;;;;;5091600;28;20054;-48
2023/10/12 07:28:50;;;;;;;12.27;2.72;;;13.60;99.90;;;;;;5091485;28;20044;-47
2023/10/12 07:36:37;;;;;;;14.45;1.98;;;14.70;99.90;;;;;;5091364;28;20043;-47
2023/10/12 07:41:53;;;;;;;10.05;2.08;;;15.30;99.90;;;;;;5078894;28;20081;-49
2023/10/12 07:44:21;;;;;;;8.05;1.98;;;15.60;99.90;;;;;;5091096;28;20051;-49
2023/10/12 07:46:47;;;;;;;12.25;1.85;;;15.90;99.90;;;;;;5091513;28;20520;-47
2023/10/12 07:57:31;;;;;;;11.13;2.13;;;16.80;99.90;;;;;;5091284;28;20436;-46
2023/10/12 08:11:12;;;;;;;10.60;2.10;;;16.40;99.90;;;;;;5072766;28;20048;-45
2023/10/12 08:21:30;;;;;;;13.25;2.15;;;16.10;99.90;;;;;;5072935;28;20036;-49
2023/10/12 08:24:23;;;;;;;9.23;1.80;;;16.00;99.90;;;;;;5091018;28;20036;-47
2023/10/12 08:26:49;;;;;;;9.45;1.83;;;15.80;99.90;;;;;;5090905;28;20403;-46
2023/10/12 08:31:43;;;;;;;15.32;2.08;;;15.60;99.90;;;;;;5092136;28;20047;-46
2023/10/12 08:34:33;;;;;;;12.85;2.03;;;15.60;99.90;;;;;;5111038;28;20099;-45
2023/10/12 08:39:38;;;;;;;10.45;2.45;;;15.50;99.90;;;;;;5114790;28;20077;-47
2023/10/12 08:44:53;;;;;;;6.90;1.77;;;15.50;99.90;;;;;;5114775;28;20053;-47
2023/10/12 08:47:44;;;;;;;10.75;1.90;;;15.40;99.90;;;;;;5115008;28;20119;-45
2023/10/12 08:52:52;;;;;;;9.35;2.00;;;15.40;99.90;;;;;;5114608;28;19920;-48
2023/10/12 08:55:24;;;;;;;9.75;2.17;;;15.30;99.90;;;;;;5114840;28;20036;-47
2023/10/12 08:57:55;;;;;;;9.05;2.13;;;15.30;99.90;;;;;;5096237;28;20046;-48
2023/10/12 09:03:00;;;;;;;12.88;2.40;;;15.30;99.90;;;;;;5114574;28;20058;-47
2023/10/12 09:05:33;;;;;;;7.40;1.98;;;15.20;99.90;;;;;;5114322;28;20126;-46
2023/10/12 09:13:28;;;;;;;9.02;2.05;;;15.30;99.90;;;;;;5114238;28;20126;-46
2023/10/12 09:15:56;;;;;;;10.23;2.20;;;15.30;99.90;;;;;;5114760;28;20043;-49
2023/10/12 09:18:33;;;;;;;8.60;1.77;;;15.30;99.90;;;;;;5114694;28;20426;-46
2023/10/12 09:23:46;;;;;;;11.70;2.13;;;15.40;99.90;;;;;;5099829;28;20044;-48
2023/10/12 09:26:15;;;;;;;14.75;2.30;;;15.50;99.90;;;;;;5113776;28;20051;-46
2023/10/12 09:36:28;;;;;;;15.48;2.28;;;15.50;99.90;;;;;;5113636;28;20047;-48
2023/10/12 09:38:57;;;;;;;9.90;2.22;;;15.50;99.90;;;;;;5113874;28;20161;-47
2023/10/12 09:41:28;;;;;;;10.43;1.67;;;15.50;99.90;;;;;;5113753;28;20043;-45
2023/10/12 09:43:56;;;;;;;11.00;2.35;;;15.50;99.90;;;;;;5114093;28;20104;-46
2023/10/12 09:46:27;;;;;;;12.82;2.10;;;15.50;99.90;;;;;;5113710;28;20039;-46
2023/10/12 09:49:06;;;;;;;9.50;1.67;;;15.50;99.90;;;;;;5112959;28;20119;-47
2023/10/12 09:51:49;;;;;;;6.55;1.67;;;15.50;99.90;;;;;;5113282;28;20122;-47
2023/10/12 09:54:28;;;;;;;8.93;1.85;;;15.60;99.90;;;;;;5113635;28;20046;-46
2023/10/12 09:57:04;;;;;;;6.97;1.83;;;15.60;99.90;;;;;;5095273;28;20035;-46
2023/10/12 09:59:32;;;;;;;8.80;1.75;;;15.70;99.90;;;;;;5113204;28;20035;-45
2023/10/12 10:04:46;;;;;;;6.90;2.30;;;15.70;99.90;;;;;;5112964;28;20067;-46
2023/10/12 10:07:26;;;;;;;6.47;1.70;;;15.90;99.90;;;;;;5113181;28;20078;-45
2023/10/12 10:09:58;;;;;;;9.15;1.80;;;15.90;99.90;;;;;;5112734;28;20086;-49
2023/10/12 10:12:27;;;;;;;12.48;2.05;;;15.90;99.90;;;;;;5113104;28;20115;-48
2023/10/12 10:14:57;;;;;;;11.85;2.03;;;15.90;99.90;;;;;;5113001;28;20036;-49
2023/10/12 10:17:24;;;;;;;7.20;1.63;;;16.00;99.90;;;;;;5095618;28;20081;-46
2023/10/12 10:22:58;;;;;;;8.57;1.88;;;16.00;99.90;;;;;;5102176;28;20055;-46
2023/10/12 10:25:34;;;;;;;9.82;2.08;;;16.00;99.90;;;;;;5112814;28;20045;-48
2023/10/12 10:28:10;;;;;;;8.38;1.73;;;16.00;99.90;;;;;;5112930;28;20048;-49
2023/10/12 10:30:49;;;;;;;10.02;1.80;;;16.10;99.90;;;;;;5112606;28;20420;-46
2023/10/12 10:33:22;;;;;;;8.77;1.60;;;16.20;99.90;;;;;;5112876;28;20066;-47
2023/10/12 10:36:00;;;;;;;15.30;2.40;;;16.30;99.90;;;;;;5112296;28;20086;-48
2023/10/12 10:38:34;;;;;;;16.80;2.03;;;16.30;99.90;;;;;;5112690;28;20050;-45
2023/10/12 10:41:08;;;;;;;9.00;1.80;;;16.30;99.90;;;;;;5112278;28;20028;-48
2023/10/12 10:43:37;;;;;;;6.53;1.90;;;16.40;99.90;;;;;;5094262;28;20066;-46
2023/10/12 10:46:06;;;;;;;11.18;2.30;;;16.40;99.90;;;;;;5112175;28;20508;-45
2023/10/12 10:48:36;;;;;;;11.48;2.08;;;16.40;99.90;;;;;;5112412;28;20028;-46
2023/10/12 10:51:10;;;;;;;11.02;2.13;;;16.50;99.90;;;;;;5112460;28;20074;-47
2023/10/12 10:53:39;;;;;;;11.18;1.90;;;16.60;99.90;;;;;;5112362;28;20054;-48
2023/10/12 10:56:13;;;;;;;8.85;1.92;;;16.60;99.90;;;;;;5112279;28;20044;-48
2023/10/12 10:58:46;;;;;;;8.77;1.98;;;16.60;99.90;;;;;;5112104;28;20043;-47
2023/10/12 11:01:15;;;;;;;11.63;2.08;;;16.60;99.90;;;;;;5111770;28;20085;-47
2023/10/12 11:03:43;;;;;;;11.23;2.10;;;16.70;99.90;;;;;;5112252;28;20063;-45
2023/10/12 11:06:21;;;;;;;13.68;2.60;;;16.70;99.90;;;;;;5112159;28;20040;-48
2023/10/12 11:09:06;;;;;;;6.60;1.95;;;16.70;99.90;;;;;;5112045;28;20031;-47
2023/10/12 11:11:38;;;;;;;13.20;2.53;;;16.70;99.90;;;;;;5112043;28;20032;-46
2023/10/12 11:14:10;;;;;;;7.95;2.08;;;16.70;99.90;;;;;;5112061;28;20040;-49
2023/10/12 11:16:37;;;;;;;9.70;2.28;;;16.70;99.90;;;;;;5112503;28;20476;-47
2023/10/12 11:19:08;;;;;;;10.88;2.25;;;16.70;99.90;;;;;;5111807;28;20043;-49
2023/10/12 11:21:34;;;;;;;11.90;2.08;;;16.80;99.90;;;;;;5112153;28;20050;-50
2023/10/12 11:24:01;;;;;;;10.02;2.00;;;16.80;99.90;;;;;;5112259;28;20452;-47
2023/10/12 11:26:28;;;;;;;7.00;1.50;;;16.70;99.90;;;;;;5112069;28;20394;-47
2023/10/12 11:29:11;;;;;;;11.55;2.00;;;16.70;99.90;;;;;;5112042;28;20456;-48
2023/10/12 11:31:37;;;;;;;6.32;1.63;;;16.70;99.90;;;;;;5111514;28;20110;-48
2023/10/12 11:34:07;;;;;;;12.93;2.20;;;16.70;99.90;;;;;;5091350;28;20047;-48
2023/10/12 11:36:35;;;;;;;15.85;2.72;;;16.60;99.90;;;;;;5087804;28;20095;-49
2023/10/12 11:39:18;;;;;;;11.38;2.30;;;16.60;99.90;;;;;;5091564;28;20040;-48
2023/10/12 11:42:06;;;;;;;12.38;2.72;;;16.60;99.90;;;;;;5091635;28;20048;-46
2023/10/12 11:44:37;;;;;;;9.95;2.10;;;16.70;99.90;;;;;;5091386;28;20040;-48
2023/10/12 11:47:07;;;;;;;9.50;2.20;;;16.70;99.90;;;;;;5091316;28;20115;-47
2023/10/12 11:49:56;;;;;;;8.07;1.83;;;16.70;99.90;;;;;;5091437;28;20431;-47
2023/10/12 11:52:33;;;;;;;9.65;1.85;;;16.70;99.90;;;;;;5091456;28;20877;-47
2023/10/12 11:55:18;;;;;;;9.88;2.10;;;16.60;99.90;;;;;;5091227;28;20040;-47
2023/10/12 11:57:48;;;;;;;11.15;1.98;;;16.60;99.90;;;;;;5091084;28;20040;-48
2023/10/12 12:00:29;;;;;;;8.82;1.50;;;16.60;99.90;;;;;;5091207;28;20032;-47
2023/10/12 12:03:02;;;;;;;9.00;1.75;;;16.60;99.90;;;;;;5091084;28;20079;-47
2023/10/12 12:05:33;;;;;;;6.00;1.67;;;16.60;99.90;;;;;;5091157;28;20036;-51
2023/10/12 12:08:14;;;;;;;18.10;3.20;;;16.60;99.90;;;;;;5091301;28;20075;-48
2023/10/12 12:13:12;;;;;;;8.43;1.95;;;16.40;99.90;;;;;;5095210;28;20050;-51
2023/10/12 12:15:44;;;;;;;10.65;1.52;;;16.40;99.90;;;;;;5094984;28;20033;-47
2023/10/12 12:18:19;;;;;;;10.70;2.55;;;16.40;99.90;;;;;;5078059;28;20032;-48
2023/10/12 12:20:56;;;;;;;6.10;1.42;;;16.40;99.90;;;;;;5094745;28;20518;-46
2023/10/12 12:23:27;;;;;;;14.90;2.72;;;16.30;99.90;;;;;;5078753;28;20052;-47
2023/10/12 12:26:00;;;;;;;11.07;1.70;;;16.30;99.90;;;;;;5094642;28;20477;-46
2023/10/12 12:28:31;;;;;;;10.10;1.95;;;16.30;99.90;;;;;;5094809;28;20105;-47
2023/10/12 12:31:00;;;;;;;10.55;1.98;;;16.30;99.90;;;;;;5094508;28;20047;-46
2023/10/12 12:33:29;;;;;;;6.88;1.88;;;16.30;99.90;;;;;;5076361;28;20105;-47
2023/10/12 12:36:00;;;;;;;12.77;2.05;;;16.30;99.90;;;;;;5094505;28;20402;-46
2023/10/12 12:40:59;;;;;;;9.93;1.88;;;16.30;99.90;;;;;;5094088;28;20135;-48
2023/10/12 12:43:25;;;;;;;12.30;2.20;;;16.30;99.90;;;;;;5094472;28;20043;-49
2023/10/12 12:45:54;;;;;;;8.00;2.00;;;16.20;99.90;;;;;;5094331;28;20504;-47
2023/10/12 12:48:20;;;;;;;13.10;1.58;;;16.20;99.90;;;;;;5094433;28;20047;-48
2023/10/12 12:50:48;;;;;;;8.60;2.33;;;16.20;99.90;;;;;;5094417;28;20402;-47
2023/10/12 12:53:18;;;;;;;5.97;1.52;;;16.20;99.90;;;;;;5094471;28;20068;-47
2023/10/12 12:55:46;;;;;;;14.93;1.70;;;16.20;99.90;;;;;;5094290;28;20126;-46
2023/10/12 12:58:15;;;;;;;7.25;1.80;;;16.20;99.90;;;;;;5094053;28;20032;-46
2023/10/12 13:00:48;;;;;;;10.52;1.90;;;16.20;99.90;;;;;;5093988;28;20115;-47
2023/10/12 13:03:15;;;;;;;9.63;2.65;;;16.20;99.90;;;;;;5093914;28;20500;-46
2023/10/12 13:05:41;;;;;;;11.15;2.28;;;16.10;99.90;;;;;;5093800;28;20089;-45
2023/10/12 13:08:07;;;;;;;14.60;2.13;;;16.10;99.90;;;;;;5062560;28;20044;-45
2023/10/12 13:10:39;;;;;;;8.40;1.85;;;16.10;99.90;;;;;;5084845;28;20040;-45
2023/10/12 13:13:06;;;;;;;9.57;1.63;;;16.10;99.90;;;;;;5093730;28;20028;-50
2023/10/12 13:15:32;;;;;;;10.82;2.17;;;16.00;99.90;;;;;;5094080;28;20098;-47
2023/10/12 13:18:01;;;;;;;9.00;1.60;;;16.00;99.90;;;;;;5093792;28;20505;-45
2023/10/12 13:20:29;;;;;;;7.22;1.92;;;16.00;99.90;;;;;;5075790;28;20036;-48
2023/10/12 13:22:55;;;;;;;16.02;2.55;;;16.00;99.90;;;;;;5092613;28;20040;-50
2023/10/12 13:25:21;;;;;;;9.77;1.90;;;16.00;99.90;;;;;;5093632;28;20490;-48
2023/10/12 13:27:51;;;;;;;6.72;1.98;;;15.90;99.90;;;;;;5093497;28;20096;-48
2023/10/12 13:30:17;;;;;;;12.93;2.17;;;16.00;99.90;;;;;;5093656;28;20058;-47
2023/10/12 13:32:47;;;;;;;9.40;2.53;;;15.90;99.90;;;;;;5093092;28;20135;-48
2023/10/12 13:35:28;;;;;;;12.52;2.00;;;15.90;99.90;;;;;;5093457;28;20036;-50
2023/10/12 13:37:58;;;;;;;9.38;1.90;;;15.90;99.90;;;;;;5093230;28;20042;-49
2023/10/12 13:40:25;;;;;;;9.18;1.60;;;15.90;99.90;;;;;;5079463;28;20096;-50
2023/10/12 13:42:51;;;;;;;11.98;1.90;;;15.90;99.90;;;;;;5093109;28;20544;-49
2023/10/12 13:45:18;;;;;;;13.85;2.38;;;15.90;99.90;;;;;;5092961;28;20119;-45
2023/10/12 13:47:47;;;;;;;12.05;2.58;;;15.90;99.90;;;;;;5093341;28;20043;-50
2023/10/12 13:50:13;;;;;;;9.00;2.38;;;15.80;99.90;;;;;;5092979;28;20036;-48
2023/10/12 13:52:39;;;;;;;9.75;2.13;;;15.80;99.90;;;;;;5093037;28;20047;-47
2023/10/12 13:55:13;;;;;;;9.50;1.92;;;15.80;99.90;;;;;;5093196;28;20394;-47
2023/10/12 13:57:55;;;;;;;8.95;2.03;;;15.70;99.90;;;;;;5093314;28;20044;-47
2023/10/12 14:00:33;;;;;;;11.95;2.25;;;15.70;99.90;;;;;;5092989;28;20044;-48
2023/10/12 14:03:10;;;;;;;11.43;1.60;;;15.60;99.90;;;;;;5092884;28;20040;-47
2023/10/12 14:05:40;;;;;;;8.73;2.10;;;15.50;99.90;;;;;;5092281;28;20036;-48
2023/10/12 14:08:10;;;;;;;16.30;2.50;;;15.60;99.90;;;;;;5092974;28;20047;-48
2023/10/12 14:10:44;;;;;;;7.60;2.10;;;15.60;99.90;;;;;;5074764;28;20468;-48
2023/10/12 14:13:13;;;;;;;11.57;2.00;;;15.60;99.90;;;;;;5092692;28;20500;-52
2023/10/12 14:15:43;;;;;;;14.65;2.85;;;15.60;99.90;;;;;;5092550;28;20036;-51
2023/10/12 14:18:16;;;;;;;10.68;2.10;;;15.60;99.90;;;;;;5092691;28;20067;-46
2023/10/12 14:20:46;;;;;;;8.15;2.22;;;15.60;99.90;;;;;;5092624;28;20059;-48
2023/10/12 14:23:13;;;;;;;11.48;2.38;;;15.60;99.90;;;;;;5092746;28;20864;-51
2023/10/12 14:25:43;;;;;;;8.70;1.85;;;15.50;99.90;;;;;;5092719;28;20048;-46
2023/10/12 14:28:10;;;;;;;10.27;1.27;;;15.50;99.90;;;;;;5092457;28;20036;-45
2023/10/12 14:30:38;;;;;;;10.27;1.88;;;15.40;99.90;;;;;;5092181;28;20626;-48
2023/10/12 14:33:06;;;;;;;7.35;1.65;;;15.30;99.90;;;;;;5092187;28;20044;-47
2023/10/12 14:35:40;;;;;;;11.07;2.13;;;15.30;99.90;;;;;;5092358;28;20040;-48
2023/10/12 14:38:06;;;;;;;10.02;2.42;;;15.20;99.90;;;;;;5092178;28;20067;-49
2023/10/12 14:40:33;;;;;;;10.75;2.25;;;15.10;99.90;;;;;;5091966;28;20508;-46
2023/10/12 14:43:06;;;;;;;7.57;2.53;;;15.00;99.90;;;;;;5092004;28;20587;-49
2023/10/12 14:45:36;;;;;;;12.38;2.38;;;14.80;99.90;;;;;;5092313;28;20040;-46
2023/10/12 14:48:11;;;;;;;9.20;2.10;;;14.70;99.90;;;;;;5092174;28;20111;-46
2023/10/12 14:50:47;;;;;;;14.88;3.80;;;14.70;99.90;;;;;;5091985;28;20490;-47
2023/10/12 14:53:16;;;;;;;14.77;3.10;;;14.60;99.90;;;;;;5091900;28;20036;-47
2023/10/12 14:55:48;;;;;;;11.05;2.55;;;14.50;99.90;;;;;;5092150;28;20043;-47
2023/10/12 14:58:16;;;;;;;12.35;2.00;;;14.40;99.90;;;;;;5091823;28;20028;-47
2023/10/12 15:00:45;;;;;;;12.30;1.80;;;14.50;99.90;;;;;;5091955;28;20032;-49
2023/10/12 15:03:11;;;;;;;10.50;2.50;;;14.50;99.90;;;;;;5091622;28;20074;-47
2023/10/12 15:05:37;;;;;;;8.30;2.22;;;14.40;99.90;;;;;;5062016;28;20040;-47
2023/10/12 15:08:07;;;;;;;15.05;2.63;;;14.40;99.90;;;;;;5062079;28;20040;-47
2023/10/12 15:10:43;;;;;;;10.30;1.85;;;14.40;99.90;;;;;;5089858;28;20047;-51
2023/10/12 15:13:19;;;;;;;7.20;2.33;;;14.40;99.90;;;;;;5078090;28;20047;-49
2023/10/12 15:15:46;;;;;;;11.07;2.30;;;14.40;99.90;;;;;;5091538;28;20385;-46
2023/10/12 15:18:17;;;;;;;14.02;2.40;;;14.30;99.90;;;;;;5091474;28;20490;-49
2023/10/12 15:20:44;;;;;;;12.57;2.22;;;14.20;99.90;;;;;;5091786;28;20055;-46
2023/10/12 15:23:13;;;;;;;14.00;2.50;;;14.30;99.90;;;;;;5091360;28;20047;-45
2023/10/12 15:25:39;;;;;;;10.88;2.83;;;14.30;99.90;;;;;;5091664;28;20119;-48
2023/10/12 15:28:09;;;;;;;12.13;2.53;;;14.20;99.90;;;;;;5091575;28;20189;-49
2023/10/12 15:30:37;;;;;;;11.55;2.78;;;14.20;99.90;;;;;;5091381;28;20040;-47
2023/10/12 15:33:04;;;;;;;14.07;2.63;;;14.20;99.90;;;;;;5091264;28;20082;-48
2023/10/12 15:35:33;;;;;;;10.05;2.15;;;14.10;99.90;;;;;;5091489;28;20036;-48
2023/10/12 15:37:59;;;;;;;9.20;2.35;;;14.10;99.90;;;;;;5091398;28;20055;-47
2023/10/12 15:40:27;;;;;;;11.25;2.30;;;14.10;99.90;;;;;;5091473;28;20490;-50
2023/10/12 15:42:55;;;;;;;11.00;2.65;;;14.00;99.90;;;;;;5073211;28;20036;-46
2023/10/12 15:45:23;;;;;;;12.10;2.22;;;14.00;99.90;;;;;;5091724;28;20032;-49
2023/10/12 15:47:50;;;;;;;;;;;14.00;99.90;;;;;;5092740;28;20128;-49
2023/10/12 15:50:16;;;;;;;12.93;2.85;;;14.00;99.90;;;;;;5095636;28;19973;-49